createdAt,value
2022-09-27T00:00:46.589Z,82.70
2022-09-27T00:03:13.839Z,82.53
2022-09-27T00:05:40.953Z,82.45
2022-09-27T00:08:08.160Z,82.56
2022-09-27T00:10:35.099Z,83.00
2022-09-27T00:13:02.138Z,82.63
2022-09-27T00:15:28.932Z,82.91
2022-09-27T00:17:55.719Z,82.81
2022-09-27T00:20:22.587Z,82.98
2022-09-27T00:22:50.096Z,82.90
2022-09-27T00:25:18.592Z,82.98
2022-09-27T00:27:45.400Z,83.27
2022-09-27T00:30:13.058Z,83.08
2022-09-27T00:32:40.024Z,82.83
2022-09-27T00:35:07.198Z,82.98
2022-09-27T00:37:34.137Z,82.77
2022-09-27T00:40:01.157Z,82.91
2022-09-27T00:42:27.922Z,82.68
2022-09-27T00:45:14.818Z,82.40
2022-09-27T00:48:05.138Z,82.64
2022-09-27T00:50:47.533Z,82.68
2022-09-27T00:53:22.939Z,82.93
2022-09-27T00:55:56.248Z,82.07
2022-09-27T00:58:39.277Z,82.21
2022-09-27T01:01:10.750Z,82.08
2022-09-27T01:03:48.824Z,82.39
2022-09-27T01:06:19.008Z,82.38
2022-09-27T01:08:46.410Z,82.66
2022-09-27T01:11:28.504Z,82.75
2022-09-27T01:14:13.665Z,82.59
2022-09-27T01:17:15.101Z,82.46
2022-09-27T01:20:31.535Z,83.05
2022-09-27T01:23:44.893Z,82.73
2022-09-27T01:26:46.235Z,82.93
2022-09-27T01:29:47.683Z,83.36
2022-09-27T01:32:38.092Z,83.66
2022-09-27T01:35:38.967Z,83.42
2022-09-27T01:38:16.696Z,83.56
2022-09-27T01:41:04.561Z,83.49
2022-09-27T01:43:41.902Z,83.39
2022-09-27T01:46:17.244Z,83.41
2022-09-27T01:48:48.723Z,83.20
2022-09-27T01:51:36.042Z,83.46
2022-09-27T01:54:06.361Z,83.57
2022-09-27T01:56:41.811Z,83.63
2022-09-27T01:59:20.903Z,83.92
2022-09-27T02:01:52.791Z,83.97
2022-09-27T02:04:25.736Z,84.17
2022-09-27T02:06:59.679Z,84.11
2022-09-27T02:09:56.949Z,84.17
2022-09-27T02:12:31.985Z,84.57
2022-09-27T02:15:07.231Z,84.83
2022-09-27T02:17:57.069Z,84.47
2022-09-27T02:20:46.515Z,84.18
2022-09-27T02:23:19.165Z,84.37
2022-09-27T02:25:57.317Z,84.26
2022-09-27T02:28:46.548Z,84.44
2022-09-27T02:31:14.056Z,84.49
2022-09-27T02:33:48.692Z,85.80
2022-09-27T02:36:15.740Z,85.59
2022-09-27T02:38:44.325Z,85.86
2022-09-27T02:41:21.050Z,85.87
2022-09-27T02:43:53.137Z,86.29
2022-09-27T02:46:50.831Z,86.82
2022-09-27T02:49:42.204Z,86.57
2022-09-27T02:53:09.052Z,86.48
2022-09-27T02:55:57.473Z,87.06
2022-09-27T02:59:01.772Z,86.78
2022-09-27T03:02:13.164Z,86.73
2022-09-27T03:04:52.608Z,86.20
2022-09-27T03:07:19.942Z,86.04
2022-09-27T03:09:52.725Z,85.84
2022-09-27T03:12:26.149Z,85.59
2022-09-27T03:14:57.781Z,85.27
2022-09-27T03:17:25.182Z,85.26
2022-09-27T03:19:52.659Z,85.04
2022-09-27T03:22:19.471Z,84.39
2022-09-27T03:24:46.279Z,84.34
2022-09-27T03:27:13.166Z,84.50
2022-09-27T03:29:39.962Z,84.33
2022-09-27T03:32:06.781Z,84.67
2022-09-27T03:34:33.860Z,84.84
2022-09-27T03:37:00.671Z,84.52
2022-09-27T03:39:27.468Z,84.57
2022-09-27T03:41:54.331Z,84.51
2022-09-27T03:44:21.137Z,84.49
2022-09-27T03:46:47.905Z,85.06
2022-09-27T03:49:14.671Z,84.52
2022-09-27T03:51:42.063Z,84.80
2022-09-27T03:54:09.669Z,84.60
2022-09-27T03:56:36.510Z,84.83
2022-09-27T03:59:04.006Z,85.16
2022-09-27T04:01:31.093Z,84.85
2022-09-27T04:03:57.895Z,85.04
2022-09-27T04:06:24.861Z,85.50
2022-09-27T04:08:51.666Z,85.21
2022-09-27T04:11:18.525Z,85.17
2022-09-27T04:13:47.573Z,85.27
2022-09-27T04:16:14.559Z,85.63
2022-09-27T04:18:41.528Z,86.14
2022-09-27T04:21:08.669Z,86.45
2022-09-27T04:23:36.707Z,87.00
2022-09-27T04:26:04.069Z,87.38
2022-09-27T04:28:32.127Z,87.22
2022-09-27T04:30:58.932Z,87.22
2022-09-27T04:33:25.766Z,87.36
2022-09-27T04:36:11.038Z,87.53
2022-09-27T04:38:38.943Z,87.85
2022-09-27T04:41:07.328Z,88.29
2022-09-27T04:43:35.106Z,88.98
2022-09-27T04:46:02.267Z,88.71
2022-09-27T04:48:29.201Z,88.86
2022-09-27T04:50:58.703Z,88.84
2022-09-27T04:53:25.737Z,90.07
2022-09-27T04:55:54.930Z,89.21
2022-09-27T04:58:23.672Z,89.62
2022-09-27T05:00:55.955Z,89.44
2022-09-27T05:03:23.618Z,89.75
2022-09-27T05:05:50.469Z,89.68
2022-09-27T05:08:17.505Z,89.91
2022-09-27T05:10:44.419Z,89.86
2022-09-27T05:13:11.165Z,89.59
2022-09-27T05:15:37.944Z,90.50
2022-09-27T05:18:04.808Z,90.19
2022-09-27T05:20:31.597Z,89.48
2022-09-27T05:22:58.769Z,89.61
2022-09-27T05:25:25.656Z,89.36
2022-09-27T05:27:52.808Z,89.24
2022-09-27T05:30:19.783Z,89.53
2022-09-27T05:32:50.464Z,89.17
2022-09-27T05:35:21.214Z,89.52
2022-09-27T05:37:57.209Z,89.91
2022-09-27T05:40:42.048Z,89.53
2022-09-27T05:43:09.901Z,89.88
2022-09-27T05:45:36.923Z,89.48
2022-09-27T05:48:04.343Z,89.48
2022-09-27T05:50:31.257Z,89.62
2022-09-27T05:52:58.617Z,89.42
2022-09-27T05:55:25.622Z,89.22
2022-09-27T05:58:02.687Z,89.12
2022-09-27T06:00:30.022Z,89.81
2022-09-27T06:03:00.526Z,89.37
2022-09-27T06:05:30.822Z,89.19
2022-09-27T06:08:04.007Z,88.93
2022-09-27T06:10:31.970Z,88.93
2022-09-27T06:13:13.690Z,88.90
2022-09-27T06:15:43.431Z,89.04
2022-09-27T06:18:18.974Z,88.87
2022-09-27T06:20:47.028Z,88.83
2022-09-27T06:23:19.200Z,88.86
2022-09-27T06:25:49.625Z,88.67
2022-09-27T06:28:17.964Z,88.87
2022-09-27T06:30:50.899Z,88.57
2022-09-27T06:33:20.414Z,88.95
2022-09-27T06:35:49.421Z,89.12
2022-09-27T06:38:21.314Z,88.89
2022-09-27T06:40:48.619Z,89.36
2022-09-27T06:43:20.574Z,89.11
2022-09-27T06:45:48.509Z,89.29
2022-09-27T06:48:17.788Z,89.13
2022-09-27T06:50:46.691Z,89.19
2022-09-27T06:53:15.957Z,89.72
2022-09-27T06:55:43.087Z,89.47
2022-09-27T06:58:30.354Z,89.40
2022-09-27T07:00:59.142Z,89.70
2022-09-27T07:03:35.368Z,89.69
2022-09-27T07:06:06.847Z,89.66
2022-09-27T07:08:36.066Z,89.41
2022-09-27T07:11:07.613Z,89.44
2022-09-27T07:13:37.361Z,89.68
2022-09-27T07:16:04.572Z,89.33
2022-09-27T07:18:31.562Z,89.29
2022-09-27T07:21:01.784Z,90.16
2022-09-27T07:23:29.261Z,89.92
2022-09-27T07:25:56.135Z,89.59
2022-09-27T07:28:23.200Z,89.81
2022-09-27T07:30:55.856Z,89.88
2022-09-27T07:33:23.695Z,89.79
2022-09-27T07:35:50.435Z,89.80
2022-09-27T07:38:17.577Z,89.53
2022-09-27T07:40:44.657Z,89.83
2022-09-27T07:43:12.462Z,89.21
2022-09-27T07:45:39.870Z,89.05
2022-09-27T07:48:09.549Z,89.54
2022-09-27T07:50:38.494Z,89.48
2022-09-27T07:53:05.713Z,90.11
2022-09-27T07:55:32.719Z,90.05
2022-09-27T07:58:11.839Z,89.43
2022-09-27T08:00:41.010Z,89.45
2022-09-27T08:03:12.209Z,90.10
2022-09-27T08:05:39.052Z,90.24
2022-09-27T08:08:05.880Z,89.89
2022-09-27T08:10:34.047Z,89.28
2022-09-27T08:13:05.418Z,89.21
2022-09-27T08:15:36.174Z,89.48
2022-09-27T08:18:03.017Z,89.36
2022-09-27T08:20:29.809Z,88.86
2022-09-27T08:22:56.967Z,88.54
2022-09-27T08:25:24.661Z,87.99
2022-09-27T08:27:59.873Z,88.24
2022-09-27T08:30:32.527Z,87.75
2022-09-27T08:33:02.629Z,87.98
2022-09-27T08:35:31.251Z,88.17
2022-09-27T08:38:00.675Z,87.40
2022-09-27T08:40:56.591Z,86.88
2022-09-27T08:43:23.243Z,86.21
2022-09-27T08:46:15.046Z,85.19
2022-09-27T08:48:45.062Z,85.50
2022-09-27T08:51:13.992Z,85.36
2022-09-27T08:53:55.742Z,85.51
2022-09-27T08:56:24.276Z,85.29
2022-09-27T08:58:59.084Z,85.38
2022-09-27T09:01:29.137Z,85.12
2022-09-27T09:04:01.777Z,84.55
2022-09-27T09:07:21.098Z,83.72
2022-09-27T09:10:58.719Z,83.75
2022-09-27T09:14:21.520Z,83.90
2022-09-27T09:17:25.057Z,83.42
2022-09-27T09:20:20.749Z,83.86
2022-09-27T09:23:00.684Z,83.52
2022-09-27T09:26:16.964Z,82.39
2022-09-27T09:29:08.889Z,81.73
2022-09-27T09:31:58.206Z,81.83
2022-09-27T09:34:44.783Z,79.88
2022-09-27T09:37:36.808Z,79.67
2022-09-27T09:40:18.290Z,79.88
2022-09-27T09:43:08.307Z,80.53
2022-09-27T09:45:44.529Z,80.45
2022-09-27T09:48:32.026Z,81.06
2022-09-27T09:51:02.955Z,81.24
2022-09-27T09:54:09.135Z,81.23
2022-09-27T09:56:45.940Z,81.60
2022-09-27T09:59:28.905Z,81.40
2022-09-27T10:02:14.185Z,82.33
2022-09-27T10:04:41.072Z,82.39
2022-09-27T10:07:09.469Z,82.64
2022-09-27T10:09:36.674Z,82.84
2022-09-27T10:12:04.437Z,82.95
2022-09-27T10:14:32.906Z,82.51
2022-09-27T10:17:04.321Z,82.60
2022-09-27T10:19:34.923Z,81.78
2022-09-27T10:22:12.012Z,81.74
2022-09-27T10:25:05.810Z,80.50
2022-09-27T10:27:43.492Z,79.36
2022-09-27T10:30:32.528Z,80.14
2022-09-27T10:33:19.236Z,80.54
2022-09-27T10:35:51.155Z,80.81
2022-09-27T10:38:32.896Z,80.89
2022-09-27T10:41:25.817Z,81.22
2022-09-27T10:43:52.712Z,80.86
2022-09-27T10:46:28.462Z,81.58
2022-09-27T10:49:26.314Z,82.59
2022-09-27T10:51:59.864Z,81.75
2022-09-27T10:54:30.600Z,81.15
2022-09-27T10:57:05.208Z,81.19
2022-09-27T10:59:37.028Z,80.41
2022-09-27T11:02:05.330Z,80.63
2022-09-27T11:04:37.169Z,80.73
2022-09-27T11:07:20.237Z,79.92
2022-09-27T11:10:05.682Z,78.81
2022-09-27T11:12:32.404Z,78.42
2022-09-27T11:15:07.685Z,77.47
2022-09-27T11:17:54.848Z,77.40
2022-09-27T11:20:48.360Z,76.26
2022-09-27T11:23:34.604Z,76.16
2022-09-27T11:26:45.185Z,75.02
2022-09-27T11:29:35.419Z,76.17
2022-09-27T11:32:24.323Z,75.19
2022-09-27T11:35:11.064Z,75.85
2022-09-27T11:38:05.038Z,75.36
2022-09-27T11:41:00.845Z,75.18
2022-09-27T11:44:09.897Z,74.59
2022-09-27T11:46:42.170Z,74.64
2022-09-27T11:49:36.475Z,74.06
2022-09-27T11:52:23.389Z,74.80
2022-09-27T11:55:24.100Z,74.25
2022-09-27T11:58:27.721Z,72.23
2022-09-27T12:01:17.736Z,70.52
2022-09-27T12:04:29.050Z,69.06
2022-09-27T12:07:17.082Z,68.70
2022-09-27T12:09:50.493Z,68.21
2022-09-27T12:12:39.791Z,67.57
2022-09-27T12:15:17.260Z,67.05
2022-09-27T12:17:49.511Z,67.57
2022-09-27T12:20:25.261Z,65.59
2022-09-27T12:22:59.058Z,66.59
2022-09-27T12:25:32.070Z,66.96
2022-09-27T12:28:39.520Z,67.51
2022-09-27T12:31:28.977Z,68.47
2022-09-27T12:34:34.365Z,67.84
2022-09-27T12:37:33.333Z,68.54
2022-09-27T12:40:18.957Z,68.83
2022-09-27T12:43:11.529Z,68.88
2022-09-27T12:46:03.132Z,69.62
2022-09-27T12:49:22.508Z,69.65
2022-09-27T12:52:09.685Z,70.17
2022-09-27T12:55:11.814Z,70.63
2022-09-27T12:58:07.778Z,70.27
2022-09-27T13:00:40.901Z,70.51
2022-09-27T13:03:44.443Z,70.12
2022-09-27T13:06:39.215Z,69.77
2022-09-27T13:09:37.740Z,69.30
2022-09-27T13:12:22.334Z,69.66
2022-09-27T13:15:17.642Z,69.27
2022-09-27T13:17:44.957Z,69.75
2022-09-27T13:20:42.642Z,70.10
2022-09-27T13:23:18.445Z,70.86
2022-09-27T13:26:09.913Z,71.64
2022-09-27T13:28:46.040Z,73.40
2022-09-27T13:31:16.346Z,73.70
2022-09-27T13:33:55.057Z,73.62
2022-09-27T13:36:25.016Z,73.82
2022-09-27T13:39:12.568Z,73.13
2022-09-27T13:41:45.255Z,73.66
2022-09-27T13:44:14.081Z,73.71
2022-09-27T13:47:20.211Z,73.61
2022-09-27T13:49:51.569Z,72.47
2022-09-27T13:52:33.977Z,72.56
2022-09-27T13:55:04.599Z,72.31
2022-09-27T13:57:40.664Z,72.00
2022-09-27T14:00:33.272Z,72.00
2022-09-27T14:03:18.380Z,73.02
2022-09-27T14:05:57.773Z,74.16
2022-09-27T14:08:36.384Z,73.58
2022-09-27T14:11:11.525Z,73.99
2022-09-27T14:13:38.810Z,73.01
2022-09-27T14:16:07.377Z,73.23
2022-09-27T14:18:37.693Z,73.24
2022-09-27T14:21:34.578Z,73.13
2022-09-27T14:24:30.703Z,73.13
2022-09-27T14:27:28.127Z,72.25
2022-09-27T14:30:06.378Z,71.14
2022-09-27T14:32:35.154Z,71.68
2022-09-27T14:35:34.081Z,71.29
2022-09-27T14:38:35.859Z,70.39
2022-09-27T14:41:04.251Z,70.45
2022-09-27T14:43:34.271Z,70.56
2022-09-27T14:46:06.924Z,70.59
2022-09-27T14:48:40.290Z,70.88
2022-09-27T14:51:14.602Z,70.68
2022-09-27T14:54:00.759Z,70.71
2022-09-27T14:56:40.007Z,70.79
2022-09-27T14:59:27.260Z,69.95
2022-09-27T15:01:54.652Z,69.97
2022-09-27T15:04:23.641Z,70.21
2022-09-27T15:06:51.477Z,70.46
2022-09-27T15:09:19.644Z,71.24
2022-09-27T15:11:54.946Z,71.78
2022-09-27T15:14:23.581Z,71.88
2022-09-27T15:16:54.158Z,71.88
2022-09-27T15:19:28.141Z,72.34
2022-09-27T15:21:57.520Z,72.25
2022-09-27T15:25:08.407Z,72.96
2022-09-27T15:27:35.380Z,72.77
2022-09-27T15:30:02.328Z,72.76
2022-09-27T15:32:29.669Z,73.14
2022-09-27T15:34:58.012Z,73.51
2022-09-27T15:37:35.548Z,73.44
2022-09-27T15:40:21.305Z,74.13
2022-09-27T15:43:02.453Z,74.75
2022-09-27T15:45:36.617Z,74.89
2022-09-27T15:48:15.758Z,75.01
2022-09-27T15:50:43.689Z,75.20
2022-09-27T15:53:11.388Z,75.05
2022-09-27T15:55:45.269Z,74.79
2022-09-27T15:58:19.696Z,74.01
2022-09-27T16:01:07.950Z,73.65
2022-09-27T16:03:35.707Z,73.57
2022-09-27T16:06:04.298Z,73.57
2022-09-27T16:08:31.230Z,73.27
2022-09-27T16:10:59.646Z,72.72
2022-09-27T16:13:32.760Z,73.08
2022-09-27T16:16:01.892Z,72.82
2022-09-27T16:18:30.886Z,72.96
2022-09-27T16:20:59.439Z,72.89
2022-09-27T16:23:26.651Z,73.03
2022-09-27T16:25:53.766Z,72.49
2022-09-27T16:28:21.061Z,71.92
2022-09-27T16:30:48.540Z,71.73
2022-09-27T16:33:15.526Z,71.96
2022-09-27T16:35:42.372Z,71.53
2022-09-27T16:38:10.046Z,71.61
2022-09-27T16:40:38.161Z,71.17
2022-09-27T16:43:07.583Z,71.40
2022-09-27T16:45:36.674Z,71.51
2022-09-27T16:48:03.900Z,71.69
2022-09-27T16:50:49.389Z,72.16
2022-09-27T16:53:16.178Z,72.36
2022-09-27T16:55:43.113Z,72.00
2022-09-27T16:58:09.993Z,72.68
2022-09-27T17:00:37.085Z,72.19
2022-09-27T17:03:04.418Z,72.06
2022-09-27T17:05:31.931Z,72.43
2022-09-27T17:07:59.097Z,72.41
2022-09-27T17:10:25.929Z,72.70
2022-09-27T17:12:52.721Z,72.39
2022-09-27T17:15:20.044Z,72.97
2022-09-27T17:17:50.884Z,73.51
2022-09-27T17:20:18.299Z,74.03
2022-09-27T17:22:45.140Z,74.40
2022-09-27T17:25:12.125Z,74.80
2022-09-27T17:27:38.965Z,75.65
2022-09-27T17:30:07.065Z,75.50
2022-09-27T17:32:35.049Z,75.36
2022-09-27T17:35:02.856Z,75.83
2022-09-27T17:37:30.307Z,76.07
2022-09-27T17:39:57.729Z,76.38
2022-09-27T17:42:25.558Z,76.83
2022-09-27T17:44:52.459Z,76.96
2022-09-27T17:47:37.616Z,76.92
2022-09-27T17:50:24.971Z,77.13
2022-09-27T17:52:53.540Z,77.43
2022-09-27T17:55:23.977Z,77.15
2022-09-27T17:57:51.367Z,77.72
2022-09-27T18:00:20.473Z,77.66
2022-09-27T18:02:47.595Z,78.36
2022-09-27T18:05:15.004Z,78.26
2022-09-27T18:07:41.825Z,78.36
2022-09-27T18:10:08.606Z,78.88
2022-09-27T18:12:35.498Z,78.89
2022-09-27T18:15:03.829Z,79.29
2022-09-27T18:17:31.109Z,79.28
2022-09-27T18:20:00.159Z,79.71
2022-09-27T18:22:31.330Z,79.99
2022-09-27T18:24:58.577Z,80.12
2022-09-27T18:27:25.352Z,79.70
2022-09-27T18:29:52.716Z,80.08
2022-09-27T18:32:19.763Z,79.75
2022-09-27T18:34:46.550Z,79.99
2022-09-27T18:37:13.409Z,80.37
2022-09-27T18:39:41.057Z,80.52
2022-09-27T18:42:09.222Z,80.57
2022-09-27T18:44:36.081Z,80.71
2022-09-27T18:47:03.019Z,81.30
2022-09-27T18:49:33.834Z,80.89
2022-09-27T18:52:01.433Z,81.39
2022-09-27T18:54:28.318Z,81.30
2022-09-27T18:56:55.158Z,81.25
2022-09-27T18:59:23.681Z,81.46
2022-09-27T19:01:50.858Z,81.37
2022-09-27T19:04:25.066Z,82.03
2022-09-27T19:06:54.551Z,81.93
2022-09-27T19:09:21.564Z,81.80
2022-09-27T19:11:48.657Z,82.24
2022-09-27T19:14:18.992Z,82.38
2022-09-27T19:16:47.633Z,82.16
2022-09-27T19:19:18.923Z,82.29
2022-09-27T19:21:46.707Z,82.50
2022-09-27T19:24:14.385Z,82.74
2022-09-27T19:26:41.582Z,82.59
2022-09-27T19:29:08.455Z,82.71
2022-09-27T19:31:36.142Z,82.93
2022-09-27T19:34:03.910Z,83.08
2022-09-27T19:36:31.145Z,83.07
2022-09-27T19:38:59.114Z,83.50
2022-09-27T19:41:26.789Z,83.77
2022-09-27T19:43:55.160Z,83.64
2022-09-27T19:46:23.794Z,83.67
2022-09-27T19:48:52.854Z,84.16
2022-09-27T19:51:27.147Z,84.00
2022-09-27T19:53:54.847Z,84.85
2022-09-27T19:56:22.935Z,84.42
2022-09-27T19:58:50.820Z,84.47
2022-09-27T20:01:24.549Z,84.73
2022-09-27T20:03:55.939Z,85.04
2022-09-27T20:06:22.879Z,84.75
2022-09-27T20:08:50.984Z,85.03
2022-09-27T20:11:23.953Z,85.06
2022-09-27T20:13:53.266Z,84.96
2022-09-27T20:16:26.158Z,84.73
2022-09-27T20:18:58.685Z,84.83
2022-09-27T20:21:32.794Z,84.76
2022-09-27T20:24:02.113Z,84.98
2022-09-27T20:26:31.088Z,85.10
2022-09-27T20:29:00.617Z,84.45
2022-09-27T20:31:34.446Z,84.70
2022-09-27T20:34:01.679Z,84.24
2022-09-27T20:36:36.625Z,84.31
2022-09-27T20:39:09.930Z,83.94
2022-09-27T20:41:46.133Z,84.31
2022-09-27T20:44:19.520Z,84.91
2022-09-27T20:46:47.776Z,85.27
2022-09-27T20:49:17.805Z,85.41
2022-09-27T20:51:51.349Z,84.98
2022-09-27T20:54:18.845Z,84.94
2022-09-27T20:56:48.337Z,84.56
2022-09-27T20:59:21.422Z,84.96
2022-09-27T21:01:52.006Z,84.79
2022-09-27T21:04:20.326Z,84.89
2022-09-27T21:06:47.270Z,85.07
2022-09-27T21:09:24.037Z,85.06
2022-09-27T21:11:52.208Z,85.31
2022-09-27T21:14:19.121Z,85.65
2022-09-27T21:16:46.402Z,85.68
2022-09-27T21:19:13.541Z,85.92
2022-09-27T21:21:40.492Z,86.22
2022-09-27T21:24:07.575Z,86.40
2022-09-27T21:26:35.205Z,87.29
2022-09-27T21:29:08.558Z,87.57
2022-09-27T21:31:36.018Z,87.10
2022-09-27T21:34:06.383Z,87.28
2022-09-27T21:36:37.413Z,87.92
2022-09-27T21:39:07.060Z,87.98
2022-09-27T21:41:34.081Z,87.83
2022-09-27T21:44:05.404Z,88.12
2022-09-27T21:46:32.586Z,88.11
2022-09-27T21:49:04.145Z,88.48
2022-09-27T21:51:36.948Z,88.64
2022-09-27T21:54:07.656Z,89.13
2022-09-27T21:56:37.798Z,89.04
2022-09-27T21:59:06.841Z,88.86
2022-09-27T22:01:35.120Z,88.64
2022-09-27T22:04:04.825Z,88.25
2022-09-27T22:06:37.434Z,88.01
2022-09-27T22:09:08.439Z,87.37
2022-09-27T22:11:39.740Z,87.27
2022-09-27T22:14:07.032Z,86.91
2022-09-27T22:16:34.121Z,86.81
2022-09-27T22:19:01.566Z,86.95
2022-09-27T22:21:32.738Z,86.79
2022-09-27T22:24:07.727Z,86.90
2022-09-27T22:26:37.764Z,87.59
2022-09-27T22:29:05.810Z,87.49
2022-09-27T22:31:33.509Z,87.53
2022-09-27T22:34:06.654Z,87.66
2022-09-27T22:36:34.381Z,87.67
2022-09-27T22:39:01.573Z,87.91
2022-09-27T22:41:30.696Z,88.18
2022-09-27T22:43:58.128Z,88.58
2022-09-27T22:46:25.432Z,88.77
2022-09-27T22:48:52.836Z,88.99
2022-09-27T22:51:19.614Z,88.78
2022-09-27T22:53:46.626Z,88.69
2022-09-27T22:56:20.548Z,88.84
2022-09-27T22:58:48.912Z,88.48
2022-09-27T23:01:23.027Z,88.19
2022-09-27T23:03:52.275Z,88.09
2022-09-27T23:06:21.045Z,88.22
2022-09-27T23:08:49.018Z,88.58
2022-09-27T23:11:20.698Z,88.35
2022-09-27T23:13:49.411Z,88.64
2022-09-27T23:16:20.845Z,88.70
2022-09-27T23:18:48.058Z,88.79
2022-09-27T23:21:16.373Z,88.73
2022-09-27T23:23:45.873Z,88.60
2022-09-27T23:26:16.330Z,88.76
2022-09-27T23:28:43.700Z,89.76
2022-09-27T23:31:18.838Z,89.36
2022-09-27T23:33:48.785Z,89.42
2022-09-27T23:36:19.243Z,89.71
2022-09-27T23:38:48.652Z,89.79
2022-09-27T23:41:17.383Z,89.85
2022-09-27T23:43:45.304Z,90.09
2022-09-27T23:46:13.380Z,89.80
2022-09-27T23:48:40.906Z,89.94
2022-09-27T23:51:11.768Z,90.00
2022-09-27T23:53:40.243Z,90.10
2022-09-27T23:56:13.787Z,90.21
2022-09-27T23:58:43.510Z,90.68
